Terminal Aerodrome Forecast
Issued by NWS

Home | Current Version | Previous Version | Text Only | Print | Product List | Glossary On
Versions: 1 2 3 4 5 6 7 8 9 10 11 12 13 14 15 16 17 18 19 20 21 22 23 24 25 26 27 28 29 30 31 32 33 34 35 36 37 38 39 40
000
FTUS46 KPQR 202341
TAFONP
TAF
KONP 202341Z 2100/2124 20022G32KT 1 1/2SM RA OVC003
     FM210600 23022G32KT 3SM -RA OVC006
     FM211300 23018G28KT 5SM -RA BR SCT008 OVC010
     FM211800 24013KT 5SM -RA OVC012=

USA.gov is the U.S. government's official web portal to all federal, state and local government web resources and services.